createdAt,value
2019-03-10T00:00:29.389Z,90.00
2019-03-10T00:05:33.065Z,90.00
2019-03-10T00:10:36.453Z,90.20
2019-03-10T00:15:41.424Z,90.40
2019-03-10T00:20:45.472Z,90.80
2019-03-10T00:25:48.793Z,90.60
2019-03-10T00:30:54.338Z,90.80
2019-03-10T00:35:57.731Z,90.90
2019-03-10T00:41:21.316Z,91.20
2019-03-10T00:47:05.280Z,90.80
2019-03-10T00:52:26.661Z,90.60
2019-03-10T00:57:34.732Z,90.40
2019-03-10T01:02:39.169Z,90.40
2019-03-10T01:07:42.486Z,90.40
2019-03-10T01:12:45.799Z,90.40
2019-03-10T01:17:49.261Z,90.30
2019-03-10T01:22:52.647Z,90.40
2019-03-10T01:27:56.589Z,90.10
2019-03-10T01:33:06.697Z,88.40
2019-03-10T01:38:10.085Z,88.20
2019-03-10T01:43:13.470Z,88.00
2019-03-10T01:48:17.139Z,88.80
2019-03-10T01:53:25.536Z,89.40
2019-03-10T01:58:25.866Z,89.90
2019-03-10T02:03:29.366Z,90.10
2019-03-10T02:08:32.770Z,90.20
2019-03-10T02:13:36.101Z,90.20
2019-03-10T02:18:39.673Z,90.10
2019-03-10T02:23:43.136Z,90.00
2019-03-10T02:28:46.497Z,90.10
2019-03-10T02:33:50.593Z,90.10
2019-03-10T02:38:53.971Z,90.40
2019-03-10T02:43:57.284Z,89.00
2019-03-10T02:49:01.846Z,87.50
2019-03-10T02:54:05.236Z,84.60
2019-03-10T02:59:11.163Z,81.10
2019-03-10T03:04:15.934Z,81.30
2019-03-10T03:09:19.346Z,79.00
2019-03-10T03:14:23.229Z,76.70
2019-03-10T03:19:26.601Z,74.70
2019-03-10T03:24:29.971Z,73.30
2019-03-10T03:29:33.503Z,74.70
2019-03-10T03:34:36.819Z,77.70
2019-03-10T03:39:40.928Z,80.70
2019-03-10T03:44:44.305Z,81.40
2019-03-10T03:49:47.700Z,79.90
2019-03-10T03:54:51.209Z,76.80
2019-03-10T03:59:55.371Z,76.10
2019-03-10T04:04:58.768Z,76.40
2019-03-10T04:10:02.590Z,76.50
2019-03-10T04:15:06.542Z,75.90
2019-03-10T04:20:10.184Z,75.70
2019-03-10T04:25:15.059Z,75.80
2019-03-10T04:30:18.466Z,76.30
2019-03-10T04:35:21.795Z,76.30
2019-03-10T04:40:25.168Z,76.20
2019-03-10T04:45:28.671Z,75.90
2019-03-10T04:50:31.979Z,76.00
2019-03-10T04:55:39.940Z,75.60
2019-03-10T05:00:45.655Z,75.60
2019-03-10T05:05:50.784Z,75.80
2019-03-10T05:10:54.135Z,75.90
2019-03-10T05:15:57.562Z,76.30
2019-03-10T05:21:00.980Z,76.40
2019-03-10T05:26:04.435Z,76.40
2019-03-10T05:31:08.359Z,76.40
2019-03-10T05:36:17.089Z,76.60
2019-03-10T05:41:20.400Z,76.10
2019-03-10T05:46:24.214Z,75.70
2019-03-10T05:51:27.844Z,75.60
2019-03-10T05:56:31.770Z,75.70
2019-03-10T06:01:36.060Z,75.30
2019-03-10T06:06:39.645Z,74.90
2019-03-10T06:11:43.009Z,75.10
2019-03-10T06:16:46.318Z,75.20
2019-03-10T06:21:49.698Z,75.30
2019-03-10T06:26:53.015Z,75.20
2019-03-10T06:31:56.308Z,75.00
2019-03-10T06:36:59.621Z,74.60
2019-03-10T06:42:03.025Z,74.50
2019-03-10T06:47:13.117Z,74.30
2019-03-10T06:52:16.783Z,74.00
2019-03-10T06:57:20.184Z,73.10
2019-03-10T07:02:24.381Z,71.70
2019-03-10T07:07:27.962Z,70.80
2019-03-10T07:12:31.482Z,68.90
2019-03-10T07:17:35.352Z,67.90
2019-03-10T07:22:40.325Z,67.10
2019-03-10T07:27:48.675Z,66.30
2019-03-10T07:32:53.693Z,66.10
2019-03-10T07:38:00.179Z,65.80
2019-03-10T07:43:05.213Z,65.00
2019-03-10T07:48:10.256Z,64.20
2019-03-10T07:53:27.169Z,64.90
2019-03-10T07:58:32.719Z,63.10
2019-03-10T08:03:48.905Z,61.30
2019-03-10T08:09:02.174Z,60.90
2019-03-10T08:14:24.984Z,60.20
2019-03-10T08:19:36.271Z,58.70
2019-03-10T08:24:59.134Z,58.30
2019-03-10T08:30:06.848Z,57.50
2019-03-10T08:35:29.984Z,57.40
2019-03-10T08:40:36.238Z,57.30
2019-03-10T08:45:59.245Z,54.40
2019-03-10T08:51:04.259Z,48.70
2019-03-10T08:56:30.585Z,45.90
2019-03-10T09:01:42.044Z,45.70
2019-03-10T09:06:49.181Z,47.50
2019-03-10T09:12:00.147Z,48.10
2019-03-10T09:17:17.064Z,51.00
2019-03-10T09:22:23.417Z,52.50
2019-03-10T09:27:46.173Z,54.40
2019-03-10T09:32:51.222Z,55.60
2019-03-10T09:38:03.774Z,56.00
2019-03-10T09:43:25.668Z,55.20
2019-03-10T09:48:34.692Z,53.30
2019-03-10T09:53:47.140Z,50.90
2019-03-10T09:58:53.953Z,51.20
2019-03-10T10:04:04.723Z,49.90
2019-03-10T10:09:15.438Z,49.90
2019-03-10T10:14:31.366Z,50.80
2019-03-10T10:19:53.294Z,52.50
2019-03-10T10:25:02.599Z,53.80
2019-03-10T10:30:11.594Z,53.90
2019-03-10T10:35:32.952Z,54.10
2019-03-10T10:40:46.819Z,55.60
2019-03-10T10:45:53.562Z,55.60
2019-03-10T10:51:01.669Z,55.60
2019-03-10T10:56:16.003Z,55.50
2019-03-10T11:01:33.005Z,55.90
2019-03-10T11:06:38.003Z,54.90
2019-03-10T11:11:48.905Z,51.30
2019-03-10T11:17:10.385Z,48.70
2019-03-10T11:22:15.430Z,35.20
2019-03-10T11:27:29.604Z,28.80
2019-03-10T11:32:44.088Z,30.40
2019-03-10T11:37:49.165Z,34.60
2019-03-10T11:43:08.103Z,35.20
2019-03-10T11:48:29.702Z,33.90
2019-03-10T11:53:43.879Z,28.80
2019-03-10T11:58:52.632Z,24.80
2019-03-10T12:04:10.527Z,23.80
2019-03-10T12:09:18.501Z,25.20
2019-03-10T12:14:23.522Z,23.50
2019-03-10T12:19:26.902Z,21.00
2019-03-10T12:24:30.236Z,21.00
2019-03-10T12:29:33.597Z,17.70
2019-03-10T12:34:37.084Z,21.00
2019-03-10T12:39:40.404Z,26.00
2019-03-10T12:44:43.836Z,30.00
2019-03-10T12:49:47.522Z,34.00
2019-03-10T12:54:51.017Z,35.80
2019-03-10T12:59:54.371Z,36.30
2019-03-10T13:04:57.768Z,36.20
2019-03-10T13:10:02.922Z,35.80
2019-03-10T13:15:09.651Z,38.70
2019-03-10T13:20:13.116Z,41.70
2019-03-10T13:25:16.987Z,43.40
2019-03-10T13:30:23.445Z,45.70
2019-03-10T13:35:26.857Z,46.20
2019-03-10T13:40:30.177Z,46.60
2019-03-10T13:45:33.677Z,45.70
2019-03-10T13:50:37.052Z,46.50
2019-03-10T13:55:45.017Z,45.50
2019-03-10T14:00:48.367Z,45.10
2019-03-10T14:05:51.775Z,44.60
2019-03-10T14:10:57.018Z,44.90
2019-03-10T14:16:00.463Z,44.60
2019-03-10T14:21:04.557Z,44.50
2019-03-10T14:26:08.574Z,44.80
2019-03-10T14:31:12.340Z,44.90
2019-03-10T14:36:15.787Z,45.60
2019-03-10T14:41:19.205Z,46.30
2019-03-10T14:46:24.618Z,45.30
2019-03-10T14:51:28.124Z,44.10
2019-03-10T14:56:32.621Z,43.10
2019-03-10T15:01:38.637Z,43.50
2019-03-10T15:06:41.988Z,43.70
2019-03-10T15:11:45.645Z,44.30
2019-03-10T15:16:48.953Z,44.50
2019-03-10T15:21:52.577Z,44.90
2019-03-10T15:26:56.569Z,44.80
2019-03-10T15:31:59.924Z,45.10
2019-03-10T15:37:05.611Z,45.30
2019-03-10T15:42:09.029Z,45.70
2019-03-10T15:47:24.071Z,46.00
2019-03-10T15:52:27.745Z,46.50
2019-03-10T15:57:32.911Z,46.90
2019-03-10T16:02:36.506Z,47.40
2019-03-10T16:07:40.015Z,47.80
2019-03-10T16:12:43.382Z,48.20
2019-03-10T16:17:48.424Z,48.40
2019-03-10T16:22:55.200Z,49.50
2019-03-10T16:27:58.392Z,50.40
2019-03-10T16:33:01.942Z,50.80
2019-03-10T16:38:06.946Z,51.40
2019-03-10T16:43:12.212Z,53.10
2019-03-10T16:48:15.623Z,54.50
2019-03-10T16:53:19.812Z,55.00
2019-03-10T16:58:23.426Z,55.00
2019-03-10T17:03:30.227Z,55.70
2019-03-10T17:08:33.960Z,57.30
2019-03-10T17:13:38.637Z,60.00
2019-03-10T17:18:41.965Z,62.50
2019-03-10T17:23:45.929Z,64.80
2019-03-10T17:28:49.328Z,68.00
2019-03-10T17:33:53.308Z,68.00
2019-03-10T17:38:56.723Z,70.00
2019-03-10T17:44:00.634Z,71.40
2019-03-10T17:49:06.104Z,73.30
2019-03-10T17:54:11.999Z,74.70
2019-03-10T17:59:18.477Z,76.30
2019-03-10T18:04:24.664Z,77.00
2019-03-10T18:09:30.184Z,77.20
2019-03-10T18:14:34.369Z,77.90
2019-03-10T18:19:37.915Z,79.10
2019-03-10T18:24:41.393Z,79.40
2019-03-10T18:29:45.025Z,80.10
2019-03-10T18:34:48.427Z,80.80
2019-03-10T18:39:53.117Z,80.90
2019-03-10T18:44:57.499Z,81.60
2019-03-10T18:50:01.048Z,82.40
2019-03-10T18:55:08.760Z,83.00
2019-03-10T19:00:23.961Z,83.00
2019-03-10T19:05:27.316Z,83.30
2019-03-10T19:10:38.210Z,83.40
2019-03-10T19:15:44.621Z,83.90
2019-03-10T19:20:49.445Z,83.80
2019-03-10T19:25:54.522Z,84.10
2019-03-10T19:30:59.257Z,84.60
2019-03-10T19:36:02.682Z,85.50
2019-03-10T19:41:06.157Z,86.40
2019-03-10T19:46:11.794Z,87.00
2019-03-10T19:51:17.263Z,87.20
2019-03-10T19:56:22.692Z,87.40
2019-03-10T20:01:26.116Z,86.90
2019-03-10T20:06:29.473Z,87.30
2019-03-10T20:11:35.022Z,87.90
2019-03-10T20:16:38.338Z,88.70
2019-03-10T20:21:41.697Z,89.50
2019-03-10T20:26:45.153Z,89.70
2019-03-10T20:31:50.455Z,90.00
2019-03-10T20:36:56.022Z,90.00
2019-03-10T20:42:07.025Z,90.10
2019-03-10T20:47:11.656Z,90.10
2019-03-10T20:52:15.071Z,90.10
2019-03-10T20:57:18.752Z,90.20
2019-03-10T21:02:22.120Z,90.30
2019-03-10T21:07:26.373Z,90.30
2019-03-10T21:12:39.854Z,90.30
2019-03-10T21:17:38.273Z,90.50
2019-03-10T21:22:47.128Z,90.60
2019-03-10T21:27:52.492Z,90.80
2019-03-10T21:32:58.554Z,91.00
2019-03-10T21:38:01.936Z,91.00
2019-03-10T21:43:05.961Z,91.00
2019-03-10T21:48:15.924Z,90.90
2019-03-10T21:53:22.881Z,91.00
2019-03-10T21:58:27.930Z,91.10
2019-03-10T22:03:31.334Z,91.30
2019-03-10T22:08:39.225Z,91.50
2019-03-10T22:24:29.241Z,91.80
2019-03-10T22:29:32.554Z,91.70
2019-03-10T22:34:58.932Z,91.80
2019-03-10T22:40:04.784Z,91.80
2019-03-10T22:45:13.982Z,91.80
2019-03-10T22:50:18.515Z,91.90
2019-03-10T22:55:28.135Z,92.00
2019-03-10T23:00:48.515Z,91.90
2019-03-10T23:05:52.716Z,92.10
2019-03-10T23:10:59.583Z,92.00
2019-03-10T23:16:08.323Z,92.00
2019-03-10T23:21:15.957Z,92.30
2019-03-10T23:26:23.047Z,92.30
2019-03-10T23:31:28.032Z,92.30
2019-03-10T23:36:35.031Z,92.20
2019-03-10T23:41:39.529Z,92.20
2019-03-10T23:46:44.700Z,92.10
2019-03-10T23:51:48.694Z,92.20
2019-03-10T23:56:53.660Z,92.20
